sensor_id;sensor_type;location;lat;lon;timestamp;P1;durP1;ratioP1;P2;durP2;ratioP2
55065;SDS011;40964;42.114;24.220;2023-11-21T00:00:16;20.45;;;7.10;;
55065;SDS011;40964;42.114;24.220;2023-11-21T00:02:42;23.55;;;6.78;;
55065;SDS011;40964;42.114;24.220;2023-11-21T00:05:08;22.48;;;5.97;;
55065;SDS011;40964;42.114;24.220;2023-11-21T00:07:34;52.13;;;12.55;;
55065;SDS011;40964;42.114;24.220;2023-11-21T00:10:01;41.75;;;10.75;;
55065;SDS011;40964;42.114;24.220;2023-11-21T00:12:27;33.88;;;8.20;;
55065;SDS011;40964;42.114;24.220;2023-11-21T00:14:54;16.05;;;5.82;;
55065;SDS011;40964;42.114;24.220;2023-11-21T00:17:20;11.02;;;4.57;;
55065;SDS011;40964;42.114;24.220;2023-11-21T00:19:45;4.47;;;2.60;;
55065;SDS011;40964;42.114;24.220;2023-11-21T00:22:11;2.45;;;1.42;;
55065;SDS011;40964;42.114;24.220;2023-11-21T00:24:36;0.90;;;0.80;;
55065;SDS011;40964;42.114;24.220;2023-11-21T00:27:02;1.15;;;0.60;;
55065;SDS011;40964;42.114;24.220;2023-11-21T00:29:27;1.58;;;0.70;;
55065;SDS011;40964;42.114;24.220;2023-11-21T00:31:53;0.88;;;0.60;;
55065;SDS011;40964;42.114;24.220;2023-11-21T00:34:18;15.48;;;5.55;;
55065;SDS011;40964;42.114;24.220;2023-11-21T00:36:44;3.90;;;1.65;;
55065;SDS011;40964;42.114;24.220;2023-11-21T00:39:10;3.50;;;1.33;;
55065;SDS011;40964;42.114;24.220;2023-11-21T00:41:36;1.45;;;1.10;;
55065;SDS011;40964;42.114;24.220;2023-11-21T00:44:02;3.05;;;0.73;;
55065;SDS011;40964;42.114;24.220;2023-11-21T00:46:28;1.27;;;0.95;;
55065;SDS011;40964;42.114;24.220;2023-11-21T00:48:54;3.00;;;1.10;;
55065;SDS011;40964;42.114;24.220;2023-11-21T00:51:20;4.47;;;0.65;;
55065;SDS011;40964;42.114;24.220;2023-11-21T00:53:46;1.20;;;0.77;;
55065;SDS011;40964;42.114;24.220;2023-11-21T00:56:12;1.45;;;1.35;;
55065;SDS011;40964;42.114;24.220;2023-11-21T00:58:38;1.52;;;1.10;;
55065;SDS011;40964;42.114;24.220;2023-11-21T01:01:04;1.40;;;1.17;;
55065;SDS011;40964;42.114;24.220;2023-11-21T01:03:29;1.70;;;1.00;;
55065;SDS011;40964;42.114;24.220;2023-11-21T01:05:55;1.48;;;1.00;;
55065;SDS011;40964;42.114;24.220;2023-11-21T01:08:21;1.42;;;1.10;;
55065;SDS011;40964;42.114;24.220;2023-11-21T01:10:46;0.70;;;0.70;;
55065;SDS011;40964;42.114;24.220;2023-11-21T01:13:12;0.77;;;0.77;;
55065;SDS011;40964;42.114;24.220;2023-11-21T01:15:40;2.17;;;0.88;;
55065;SDS011;40964;42.114;24.220;2023-11-21T01:18:07;0.80;;;0.80;;
55065;SDS011;40964;42.114;24.220;2023-11-21T01:20:34;0.65;;;0.65;;
55065;SDS011;40964;42.114;24.220;2023-11-21T01:22:59;1.77;;;1.30;;
55065;SDS011;40964;42.114;24.220;2023-11-21T01:25:25;1.15;;;1.00;;
55065;SDS011;40964;42.114;24.220;2023-11-21T01:27:51;2.05;;;1.10;;
55065;SDS011;40964;42.114;24.220;2023-11-21T01:30:17;2.95;;;1.58;;
55065;SDS011;40964;42.114;24.220;2023-11-21T01:32:42;1.13;;;0.88;;
55065;SDS011;40964;42.114;24.220;2023-11-21T01:35:09;1.15;;;0.80;;
55065;SDS011;40964;42.114;24.220;2023-11-21T01:37:35;0.68;;;0.60;;
55065;SDS011;40964;42.114;24.220;2023-11-21T01:40:04;1.15;;;0.80;;
55065;SDS011;40964;42.114;24.220;2023-11-21T01:42:38;1.60;;;1.13;;
55065;SDS011;40964;42.114;24.220;2023-11-21T01:45:04;0.70;;;0.70;;
55065;SDS011;40964;42.114;24.220;2023-11-21T01:47:33;0.75;;;0.63;;
55065;SDS011;40964;42.114;24.220;2023-11-21T01:50:01;0.85;;;0.70;;
55065;SDS011;40964;42.114;24.220;2023-11-21T01:52:26;0.98;;;0.70;;
55065;SDS011;40964;42.114;24.220;2023-11-21T01:54:52;1.60;;;0.95;;
55065;SDS011;40964;42.114;24.220;2023-11-21T01:57:19;0.75;;;0.70;;
55065;SDS011;40964;42.114;24.220;2023-11-21T01:59:45;2.10;;;1.10;;
55065;SDS011;40964;42.114;24.220;2023-11-21T02:02:13;3.97;;;1.35;;
55065;SDS011;40964;42.114;24.220;2023-11-21T02:04:39;3.17;;;1.10;;
55065;SDS011;40964;42.114;24.220;2023-11-21T02:07:04;2.33;;;1.33;;
55065;SDS011;40964;42.114;24.220;2023-11-21T02:09:33;2.45;;;1.00;;
55065;SDS011;40964;42.114;24.220;2023-11-21T02:11:59;0.77;;;0.60;;
55065;SDS011;40964;42.114;24.220;2023-11-21T02:14:25;0.70;;;0.52;;
55065;SDS011;40964;42.114;24.220;2023-11-21T02:16:53;0.40;;;0.40;;
55065;SDS011;40964;42.114;24.220;2023-11-21T02:19:19;0.93;;;0.60;;
55065;SDS011;40964;42.114;24.220;2023-11-21T02:21:50;1.67;;;1.00;;
55065;SDS011;40964;42.114;24.220;2023-11-21T02:24:22;1.38;;;0.80;;
55065;SDS011;40964;42.114;24.220;2023-11-21T02:26:49;1.65;;;1.10;;
55065;SDS011;40964;42.114;24.220;2023-11-21T02:29:18;1.23;;;0.70;;
55065;SDS011;40964;42.114;24.220;2023-11-21T02:31:47;0.70;;;0.60;;
55065;SDS011;40964;42.114;24.220;2023-11-21T02:34:15;1.25;;;0.80;;
55065;SDS011;40964;42.114;24.220;2023-11-21T02:36:42;3.33;;;1.10;;
55065;SDS011;40964;42.114;24.220;2023-11-21T02:39:08;1.20;;;0.70;;
55065;SDS011;40964;42.114;24.220;2023-11-21T02:41:34;1.38;;;0.90;;
55065;SDS011;40964;42.114;24.220;2023-11-21T02:44:00;1.10;;;0.77;;
55065;SDS011;40964;42.114;24.220;2023-11-21T02:46:26;1.67;;;1.05;;
55065;SDS011;40964;42.114;24.220;2023-11-21T02:48:51;1.92;;;1.00;;
55065;SDS011;40964;42.114;24.220;2023-11-21T02:51:19;2.17;;;1.58;;
55065;SDS011;40964;42.114;24.220;2023-11-21T02:53:45;1.88;;;1.15;;
55065;SDS011;40964;42.114;24.220;2023-11-21T02:56:11;1.48;;;1.10;;
55065;SDS011;40964;42.114;24.220;2023-11-21T02:58:37;1.67;;;1.30;;
55065;SDS011;40964;42.114;24.220;2023-11-21T03:01:06;3.15;;;1.38;;
55065;SDS011;40964;42.114;24.220;2023-11-21T03:03:32;3.58;;;1.80;;
55065;SDS011;40964;42.114;24.220;2023-11-21T03:05:57;76.80;;;23.58;;
55065;SDS011;40964;42.114;24.220;2023-11-21T03:08:23;27.88;;;9.65;;
55065;SDS011;40964;42.114;24.220;2023-11-21T03:10:48;6.03;;;2.38;;
55065;SDS011;40964;42.114;24.220;2023-11-21T03:13:14;6.97;;;2.30;;
55065;SDS011;40964;42.114;24.220;2023-11-21T03:15:39;2.15;;;1.70;;
55065;SDS011;40964;42.114;24.220;2023-11-21T03:18:05;1.92;;;1.48;;
55065;SDS011;40964;42.114;24.220;2023-11-21T03:20:30;1.95;;;1.10;;
55065;SDS011;40964;42.114;24.220;2023-11-21T03:22:56;1.98;;;1.30;;
55065;SDS011;40964;42.114;24.220;2023-11-21T03:25:21;1.55;;;1.45;;
55065;SDS011;40964;42.114;24.220;2023-11-21T03:27:49;3.35;;;1.95;;
55065;SDS011;40964;42.114;24.220;2023-11-21T03:30:14;2.40;;;0.98;;
55065;SDS011;40964;42.114;24.220;2023-11-21T03:32:40;1.40;;;1.20;;
55065;SDS011;40964;42.114;24.220;2023-11-21T03:35:06;1.95;;;1.02;;
55065;SDS011;40964;42.114;24.220;2023-11-21T03:37:32;1.42;;;1.27;;
55065;SDS011;40964;42.114;24.220;2023-11-21T03:39:57;1.23;;;1.13;;
55065;SDS011;40964;42.114;24.220;2023-11-21T03:42:23;0.90;;;0.90;;
55065;SDS011;40964;42.114;24.220;2023-11-21T03:44:50;1.98;;;1.23;;
55065;SDS011;40964;42.114;24.220;2023-11-21T03:47:16;4.90;;;1.75;;
55065;SDS011;40964;42.114;24.220;2023-11-21T03:49:41;5.47;;;2.63;;
55065;SDS011;40964;42.114;24.220;2023-11-21T03:52:06;4.65;;;2.00;;
55065;SDS011;40964;42.114;24.220;2023-11-21T03:54:32;4.90;;;2.25;;
55065;SDS011;40964;42.114;24.220;2023-11-21T03:56:58;11.40;;;5.40;;
55065;SDS011;40964;42.114;24.220;2023-11-21T03:59:23;8.60;;;4.22;;
55065;SDS011;40964;42.114;24.220;2023-11-21T04:01:49;10.68;;;4.38;;
55065;SDS011;40964;42.114;24.220;2023-11-21T04:04:15;12.88;;;5.57;;
55065;SDS011;40964;42.114;24.220;2023-11-21T04:06:41;12.73;;;6.03;;
55065;SDS011;40964;42.114;24.220;2023-11-21T04:09:06;9.98;;;4.72;;
55065;SDS011;40964;42.114;24.220;2023-11-21T04:11:32;7.70;;;3.85;;
55065;SDS011;40964;42.114;24.220;2023-11-21T04:13:57;5.90;;;3.20;;
55065;SDS011;40964;42.114;24.220;2023-11-21T04:16:23;3.90;;;2.20;;
55065;SDS011;40964;42.114;24.220;2023-11-21T04:18:49;4.28;;;2.20;;
55065;SDS011;40964;42.114;24.220;2023-11-21T04:21:14;3.40;;;2.13;;
55065;SDS011;40964;42.114;24.220;2023-11-21T04:23:40;5.85;;;2.85;;
55065;SDS011;40964;42.114;24.220;2023-11-21T04:26:05;2.97;;;2.00;;
55065;SDS011;40964;42.114;24.220;2023-11-21T04:28:31;3.45;;;2.00;;
55065;SDS011;40964;42.114;24.220;2023-11-21T04:30:57;7.05;;;3.72;;
55065;SDS011;40964;42.114;24.220;2023-11-21T04:33:22;16.45;;;6.80;;
55065;SDS011;40964;42.114;24.220;2023-11-21T04:35:48;6.20;;;3.55;;
55065;SDS011;40964;42.114;24.220;2023-11-21T04:38:14;2.15;;;1.75;;
55065;SDS011;40964;42.114;24.220;2023-11-21T04:40:39;3.40;;;1.60;;
55065;SDS011;40964;42.114;24.220;2023-11-21T04:43:04;2.22;;;1.83;;
55065;SDS011;40964;42.114;24.220;2023-11-21T04:45:30;1.73;;;1.50;;
55065;SDS011;40964;42.114;24.220;2023-11-21T04:47:55;2.58;;;1.73;;
55065;SDS011;40964;42.114;24.220;2023-11-21T04:50:21;1.90;;;1.70;;
55065;SDS011;40964;42.114;24.220;2023-11-21T04:52:46;3.72;;;2.33;;
55065;SDS011;40964;42.114;24.220;2023-11-21T04:55:12;3.25;;;2.28;;
55065;SDS011;40964;42.114;24.220;2023-11-21T04:57:37;2.67;;;2.00;;
55065;SDS011;40964;42.114;24.220;2023-11-21T05:00:06;3.78;;;2.47;;
55065;SDS011;40964;42.114;24.220;2023-11-21T05:02:34;3.58;;;2.50;;
55065;SDS011;40964;42.114;24.220;2023-11-21T05:05:00;5.13;;;2.33;;
55065;SDS011;40964;42.114;24.220;2023-11-21T05:07:26;5.75;;;2.83;;
55065;SDS011;40964;42.114;24.220;2023-11-21T05:09:54;6.93;;;3.30;;
55065;SDS011;40964;42.114;24.220;2023-11-21T05:12:21;9.32;;;4.32;;
55065;SDS011;40964;42.114;24.220;2023-11-21T05:14:48;7.40;;;3.50;;
55065;SDS011;40964;42.114;24.220;2023-11-21T05:17:14;6.43;;;3.03;;
55065;SDS011;40964;42.114;24.220;2023-11-21T05:19:39;3.78;;;2.67;;
55065;SDS011;40964;42.114;24.220;2023-11-21T05:22:05;7.18;;;2.90;;
55065;SDS011;40964;42.114;24.220;2023-11-21T05:24:31;5.90;;;3.40;;
55065;SDS011;40964;42.114;24.220;2023-11-21T05:26:56;8.05;;;3.17;;
55065;SDS011;40964;42.114;24.220;2023-11-21T05:29:23;6.43;;;4.30;;
55065;SDS011;40964;42.114;24.220;2023-11-21T05:31:48;8.85;;;4.78;;
55065;SDS011;40964;42.114;24.220;2023-11-21T05:34:14;12.25;;;5.70;;
55065;SDS011;40964;42.114;24.220;2023-11-21T05:36:42;10.00;;;5.53;;
55065;SDS011;40964;42.114;24.220;2023-11-21T05:39:08;12.60;;;5.28;;
55065;SDS011;40964;42.114;24.220;2023-11-21T05:41:35;23.52;;;11.82;;
55065;SDS011;40964;42.114;24.220;2023-11-21T05:44:00;23.27;;;10.18;;
55065;SDS011;40964;42.114;24.220;2023-11-21T05:46:26;12.60;;;8.40;;
55065;SDS011;40964;42.114;24.220;2023-11-21T05:48:51;9.73;;;6.22;;
55065;SDS011;40964;42.114;24.220;2023-11-21T05:51:17;10.90;;;5.78;;
55065;SDS011;40964;42.114;24.220;2023-11-21T05:53:42;10.82;;;5.90;;
55065;SDS011;40964;42.114;24.220;2023-11-21T05:56:08;15.30;;;5.82;;
55065;SDS011;40964;42.114;24.220;2023-11-21T05:58:33;9.85;;;6.05;;
55065;SDS011;40964;42.114;24.220;2023-11-21T06:00:59;8.95;;;4.65;;
55065;SDS011;40964;42.114;24.220;2023-11-21T06:03:24;9.00;;;4.70;;
55065;SDS011;40964;42.114;24.220;2023-11-21T06:05:50;8.52;;;4.88;;
55065;SDS011;40964;42.114;24.220;2023-11-21T06:08:15;9.20;;;5.22;;
55065;SDS011;40964;42.114;24.220;2023-11-21T06:10:42;17.08;;;5.03;;
55065;SDS011;40964;42.114;24.220;2023-11-21T06:13:09;7.47;;;4.43;;
55065;SDS011;40964;42.114;24.220;2023-11-21T06:15:35;6.47;;;4.10;;
55065;SDS011;40964;42.114;24.220;2023-11-21T06:18:01;9.30;;;4.00;;
55065;SDS011;40964;42.114;24.220;2023-11-21T06:20:27;5.53;;;3.83;;
55065;SDS011;40964;42.114;24.220;2023-11-21T06:22:52;6.78;;;4.35;;
55065;SDS011;40964;42.114;24.220;2023-11-21T06:25:19;6.80;;;4.28;;
55065;SDS011;40964;42.114;24.220;2023-11-21T06:27:46;8.02;;;4.00;;
55065;SDS011;40964;42.114;24.220;2023-11-21T06:30:13;8.50;;;3.92;;
55065;SDS011;40964;42.114;24.220;2023-11-21T06:32:40;6.50;;;3.70;;
55065;SDS011;40964;42.114;24.220;2023-11-21T06:35:06;7.50;;;3.42;;
55065;SDS011;40964;42.114;24.220;2023-11-21T06:37:35;5.45;;;3.35;;
55065;SDS011;40964;42.114;24.220;2023-11-21T06:40:01;6.10;;;3.75;;
55065;SDS011;40964;42.114;24.220;2023-11-21T06:42:29;4.75;;;2.88;;
55065;SDS011;40964;42.114;24.220;2023-11-21T06:44:54;7.45;;;3.03;;
55065;SDS011;40964;42.114;24.220;2023-11-21T06:47:24;5.63;;;2.90;;
55065;SDS011;40964;42.114;24.220;2023-11-21T06:49:50;5.47;;;2.80;;
55065;SDS011;40964;42.114;24.220;2023-11-21T06:52:16;4.03;;;3.00;;
55065;SDS011;40964;42.114;24.220;2023-11-21T06:54:42;4.88;;;2.85;;
55065;SDS011;40964;42.114;24.220;2023-11-21T06:57:07;4.43;;;2.85;;
55065;SDS011;40964;42.114;24.220;2023-11-21T06:59:33;4.78;;;2.75;;
55065;SDS011;40964;42.114;24.220;2023-11-21T07:01:58;4.03;;;2.90;;
55065;SDS011;40964;42.114;24.220;2023-11-21T07:04:24;6.68;;;2.65;;
55065;SDS011;40964;42.114;24.220;2023-11-21T07:06:51;6.95;;;3.55;;
55065;SDS011;40964;42.114;24.220;2023-11-21T07:09:16;6.75;;;3.50;;
55065;SDS011;40964;42.114;24.220;2023-11-21T07:11:42;6.50;;;3.90;;
55065;SDS011;40964;42.114;24.220;2023-11-21T07:14:08;6.82;;;3.65;;
55065;SDS011;40964;42.114;24.220;2023-11-21T07:16:34;7.97;;;3.88;;
55065;SDS011;40964;42.114;24.220;2023-11-21T07:19:02;6.35;;;3.58;;
55065;SDS011;40964;42.114;24.220;2023-11-21T07:21:32;6.20;;;3.33;;
55065;SDS011;40964;42.114;24.220;2023-11-21T07:24:01;6.55;;;3.45;;
55065;SDS011;40964;42.114;24.220;2023-11-21T07:26:31;6.22;;;3.60;;
55065;SDS011;40964;42.114;24.220;2023-11-21T07:28:58;6.50;;;3.17;;
55065;SDS011;40964;42.114;24.220;2023-11-21T07:31:24;3.05;;;2.20;;
55065;SDS011;40964;42.114;24.220;2023-11-21T07:33:49;3.22;;;2.45;;
55065;SDS011;40964;42.114;24.220;2023-11-21T07:36:16;5.05;;;3.30;;
55065;SDS011;40964;42.114;24.220;2023-11-21T07:38:43;3.20;;;2.42;;
55065;SDS011;40964;42.114;24.220;2023-11-21T07:41:10;2.85;;;2.22;;
55065;SDS011;40964;42.114;24.220;2023-11-21T07:43:36;4.55;;;2.17;;
55065;SDS011;40964;42.114;24.220;2023-11-21T07:46:02;2.95;;;2.05;;
55065;SDS011;40964;42.114;24.220;2023-11-21T07:48:31;2.55;;;1.83;;
55065;SDS011;40964;42.114;24.220;2023-11-21T07:50:57;10.75;;;1.80;;
55065;SDS011;40964;42.114;24.220;2023-11-21T07:53:27;3.97;;;2.45;;
55065;SDS011;40964;42.114;24.220;2023-11-21T07:56:04;4.82;;;1.90;;
55065;SDS011;40964;42.114;24.220;2023-11-21T07:58:31;4.57;;;2.17;;
55065;SDS011;40964;42.114;24.220;2023-11-21T08:00:58;2.67;;;1.80;;
55065;SDS011;40964;42.114;24.220;2023-11-21T08:03:24;3.53;;;1.92;;
55065;SDS011;40964;42.114;24.220;2023-11-21T08:05:51;2.95;;;2.00;;
55065;SDS011;40964;42.114;24.220;2023-11-21T08:08:17;3.08;;;1.92;;
55065;SDS011;40964;42.114;24.220;2023-11-21T08:10:43;3.22;;;2.33;;
55065;SDS011;40964;42.114;24.220;2023-11-21T08:13:13;4.35;;;2.70;;
55065;SDS011;40964;42.114;24.220;2023-11-21T08:15:40;8.70;;;3.10;;
55065;SDS011;40964;42.114;24.220;2023-11-21T08:18:10;9.43;;;3.78;;
55065;SDS011;40964;42.114;24.220;2023-11-21T08:20:35;5.38;;;3.10;;
55065;SDS011;40964;42.114;24.220;2023-11-21T08:23:01;6.72;;;3.80;;
55065;SDS011;40964;42.114;24.220;2023-11-21T08:25:27;5.97;;;3.50;;
55065;SDS011;40964;42.114;24.220;2023-11-21T08:27:53;6.53;;;2.95;;
55065;SDS011;40964;42.114;24.220;2023-11-21T08:30:19;5.78;;;3.40;;
55065;SDS011;40964;42.114;24.220;2023-11-21T08:32:46;6.38;;;3.30;;
55065;SDS011;40964;42.114;24.220;2023-11-21T08:35:11;6.63;;;3.55;;
55065;SDS011;40964;42.114;24.220;2023-11-21T08:37:37;6.22;;;3.22;;
55065;SDS011;40964;42.114;24.220;2023-11-21T08:40:04;6.78;;;3.33;;
55065;SDS011;40964;42.114;24.220;2023-11-21T08:42:34;6.13;;;3.28;;
55065;SDS011;40964;42.114;24.220;2023-11-21T08:45:00;5.18;;;3.75;;
55065;SDS011;40964;42.114;24.220;2023-11-21T08:47:26;6.50;;;3.17;;
55065;SDS011;40964;42.114;24.220;2023-11-21T08:49:52;5.05;;;3.22;;
55065;SDS011;40964;42.114;24.220;2023-11-21T08:52:18;6.75;;;3.30;;
55065;SDS011;40964;42.114;24.220;2023-11-21T08:54:46;8.60;;;3.47;;
55065;SDS011;40964;42.114;24.220;2023-11-21T08:57:11;9.43;;;3.67;;
55065;SDS011;40964;42.114;24.220;2023-11-21T08:59:36;6.55;;;3.65;;
55065;SDS011;40964;42.114;24.220;2023-11-21T09:02:02;7.05;;;4.43;;
55065;SDS011;40964;42.114;24.220;2023-11-21T09:04:27;10.55;;;3.72;;
55065;SDS011;40964;42.114;24.220;2023-11-21T09:06:53;6.32;;;3.33;;
55065;SDS011;40964;42.114;24.220;2023-11-21T09:09:18;5.30;;;2.97;;
55065;SDS011;40964;42.114;24.220;2023-11-21T09:11:44;4.85;;;3.17;;
55065;SDS011;40964;42.114;24.220;2023-11-21T09:14:11;4.72;;;2.90;;
55065;SDS011;40964;42.114;24.220;2023-11-21T09:16:38;6.57;;;3.63;;
55065;SDS011;40964;42.114;24.220;2023-11-21T09:19:04;6.97;;;3.28;;
55065;SDS011;40964;42.114;24.220;2023-11-21T09:21:30;5.35;;;3.10;;
55065;SDS011;40964;42.114;24.220;2023-11-21T09:23:56;5.07;;;3.10;;
55065;SDS011;40964;42.114;24.220;2023-11-21T09:26:21;6.07;;;2.50;;
55065;SDS011;40964;42.114;24.220;2023-11-21T09:28:46;5.22;;;3.78;;
55065;SDS011;40964;42.114;24.220;2023-11-21T09:31:13;4.60;;;2.70;;
55065;SDS011;40964;42.114;24.220;2023-11-21T09:33:42;2.55;;;1.92;;
55065;SDS011;40964;42.114;24.220;2023-11-21T09:36:12;4.03;;;2.60;;
55065;SDS011;40964;42.114;24.220;2023-11-21T09:38:41;3.72;;;2.30;;
55065;SDS011;40964;42.114;24.220;2023-11-21T09:41:13;4.90;;;2.00;;
55065;SDS011;40964;42.114;24.220;2023-11-21T09:43:46;3.40;;;2.20;;
55065;SDS011;40964;42.114;24.220;2023-11-21T09:46:13;3.33;;;2.38;;
55065;SDS011;40964;42.114;24.220;2023-11-21T09:48:44;3.63;;;2.20;;
55065;SDS011;40964;42.114;24.220;2023-11-21T09:51:15;2.03;;;1.60;;
55065;SDS011;40964;42.114;24.220;2023-11-21T09:53:45;5.53;;;1.85;;
55065;SDS011;40964;42.114;24.220;2023-11-21T09:56:17;2.78;;;1.67;;
55065;SDS011;40964;42.114;24.220;2023-11-21T09:58:50;2.47;;;1.70;;
55065;SDS011;40964;42.114;24.220;2023-11-21T10:01:17;1.65;;;1.42;;
55065;SDS011;40964;42.114;24.220;2023-11-21T10:03:44;2.97;;;1.75;;
55065;SDS011;40964;42.114;24.220;2023-11-21T10:06:09;4.13;;;1.90;;
55065;SDS011;40964;42.114;24.220;2023-11-21T10:08:39;2.70;;;1.85;;
55065;SDS011;40964;42.114;24.220;2023-11-21T10:11:05;3.70;;;1.95;;
55065;SDS011;40964;42.114;24.220;2023-11-21T10:13:36;2.45;;;1.50;;
55065;SDS011;40964;42.114;24.220;2023-11-21T10:16:02;3.55;;;1.60;;
55065;SDS011;40964;42.114;24.220;2023-11-21T10:18:32;2.08;;;1.50;;
55065;SDS011;40964;42.114;24.220;2023-11-21T10:20:59;4.07;;;1.90;;
55065;SDS011;40964;42.114;24.220;2023-11-21T10:23:25;2.33;;;1.70;;
55065;SDS011;40964;42.114;24.220;2023-11-21T10:25:52;2.28;;;1.90;;
55065;SDS011;40964;42.114;24.220;2023-11-21T10:28:18;2.30;;;1.48;;
55065;SDS011;40964;42.114;24.220;2023-11-21T10:30:44;2.15;;;1.40;;
55065;SDS011;40964;42.114;24.220;2023-11-21T10:33:09;1.90;;;1.45;;
55065;SDS011;40964;42.114;24.220;2023-11-21T10:35:39;2.70;;;1.92;;
55065;SDS011;40964;42.114;24.220;2023-11-21T10:38:08;2.03;;;1.40;;
55065;SDS011;40964;42.114;24.220;2023-11-21T10:40:38;2.40;;;1.58;;
55065;SDS011;40964;42.114;24.220;2023-11-21T10:43:07;1.58;;;1.42;;
55065;SDS011;40964;42.114;24.220;2023-11-21T10:45:34;2.20;;;1.70;;
55065;SDS011;40964;42.114;24.220;2023-11-21T10:48:04;2.08;;;1.50;;
55065;SDS011;40964;42.114;24.220;2023-11-21T10:50:32;2.17;;;1.50;;
55065;SDS011;40964;42.114;24.220;2023-11-21T10:53:00;3.13;;;1.60;;
55065;SDS011;40964;42.114;24.220;2023-11-21T10:55:27;2.55;;;1.55;;
55065;SDS011;40964;42.114;24.220;2023-11-21T10:57:53;1.75;;;1.38;;
55065;SDS011;40964;42.114;24.220;2023-11-21T11:00:19;4.13;;;2.63;;
55065;SDS011;40964;42.114;24.220;2023-11-21T11:02:50;6.68;;;3.25;;
55065;SDS011;40964;42.114;24.220;2023-11-21T11:05:19;10.10;;;4.70;;
55065;SDS011;40964;42.114;24.220;2023-11-21T11:07:47;3.88;;;2.47;;
55065;SDS011;40964;42.114;24.220;2023-11-21T11:10:19;3.30;;;2.63;;
55065;SDS011;40964;42.114;24.220;2023-11-21T11:12:47;4.43;;;1.65;;
55065;SDS011;40964;42.114;24.220;2023-11-21T11:15:15;2.42;;;1.73;;
55065;SDS011;40964;42.114;24.220;2023-11-21T11:17:41;2.45;;;1.85;;
55065;SDS011;40964;42.114;24.220;2023-11-21T11:20:11;3.40;;;1.83;;
55065;SDS011;40964;42.114;24.220;2023-11-21T11:28:06;1.75;;;1.40;;
55065;SDS011;40964;42.114;24.220;2023-11-21T11:30:41;2.85;;;1.90;;
55065;SDS011;40964;42.114;24.220;2023-11-21T11:35:50;2.22;;;1.70;;
55065;SDS011;40964;42.114;24.220;2023-11-21T11:38:22;5.22;;;1.90;;
55065;SDS011;40964;42.114;24.220;2023-11-21T11:40:48;4.28;;;2.00;;
55065;SDS011;40964;42.114;24.220;2023-11-21T11:43:27;3.10;;;1.80;;
55065;SDS011;40964;42.114;24.220;2023-11-21T11:45:56;4.15;;;1.80;;
55065;SDS011;40964;42.114;24.220;2023-11-21T11:48:24;6.45;;;2.38;;
55065;SDS011;40964;42.114;24.220;2023-11-21T11:53:28;3.25;;;2.42;;
55065;SDS011;40964;42.114;24.220;2023-11-21T11:58:48;4.68;;;2.78;;
55065;SDS011;40964;42.114;24.220;2023-11-21T12:01:19;4.35;;;2.25;;
55065;SDS011;40964;42.114;24.220;2023-11-21T12:04:14;2.45;;;1.75;;
55065;SDS011;40964;42.114;24.220;2023-11-21T12:06:39;4.40;;;2.10;;
55065;SDS011;40964;42.114;24.220;2023-11-21T12:09:06;2.83;;;2.00;;
55065;SDS011;40964;42.114;24.220;2023-11-21T12:11:32;5.25;;;2.60;;
55065;SDS011;40964;42.114;24.220;2023-11-21T12:14:00;6.72;;;2.42;;
55065;SDS011;40964;42.114;24.220;2023-11-21T12:16:26;4.93;;;3.47;;
55065;SDS011;40964;42.114;24.220;2023-11-21T12:18:53;6.32;;;2.60;;
55065;SDS011;40964;42.114;24.220;2023-11-21T12:21:19;5.20;;;2.40;;
55065;SDS011;40964;42.114;24.220;2023-11-21T12:23:45;5.85;;;2.20;;
55065;SDS011;40964;42.114;24.220;2023-11-21T12:26:12;4.43;;;2.42;;
55065;SDS011;40964;42.114;24.220;2023-11-21T12:28:38;3.58;;;2.40;;
55065;SDS011;40964;42.114;24.220;2023-11-21T12:31:04;5.20;;;2.25;;
55065;SDS011;40964;42.114;24.220;2023-11-21T12:33:32;4.00;;;2.25;;
55065;SDS011;40964;42.114;24.220;2023-11-21T12:35:58;5.72;;;2.42;;
55065;SDS011;40964;42.114;24.220;2023-11-21T12:38:24;4.72;;;2.85;;
55065;SDS011;40964;42.114;24.220;2023-11-21T12:40:50;6.47;;;2.72;;
55065;SDS011;40964;42.114;24.220;2023-11-21T12:43:16;5.97;;;3.47;;
55065;SDS011;40964;42.114;24.220;2023-11-21T12:45:43;7.40;;;3.45;;
55065;SDS011;40964;42.114;24.220;2023-11-21T12:48:09;7.57;;;4.40;;
55065;SDS011;40964;42.114;24.220;2023-11-21T12:50:36;8.63;;;3.50;;
55065;SDS011;40964;42.114;24.220;2023-11-21T12:53:04;8.93;;;3.03;;
55065;SDS011;40964;42.114;24.220;2023-11-21T12:55:34;7.35;;;2.85;;
55065;SDS011;40964;42.114;24.220;2023-11-21T12:58:02;6.20;;;3.05;;
55065;SDS011;40964;42.114;24.220;2023-11-21T13:00:48;6.80;;;3.30;;
55065;SDS011;40964;42.114;24.220;2023-11-21T13:03:15;5.72;;;2.83;;
55065;SDS011;40964;42.114;24.220;2023-11-21T13:05:43;9.52;;;3.22;;
55065;SDS011;40964;42.114;24.220;2023-11-21T13:08:11;5.30;;;3.17;;
55065;SDS011;40964;42.114;24.220;2023-11-21T13:10:56;4.93;;;3.05;;
55065;SDS011;40964;42.114;24.220;2023-11-21T13:13:22;7.32;;;2.78;;
55065;SDS011;40964;42.114;24.220;2023-11-21T13:18:25;4.45;;;2.63;;
55065;SDS011;40964;42.114;24.220;2023-11-21T13:20:56;4.35;;;2.42;;
55065;SDS011;40964;42.114;24.220;2023-11-21T13:23:23;7.03;;;2.80;;
55065;SDS011;40964;42.114;24.220;2023-11-21T13:25:49;10.77;;;3.35;;
55065;SDS011;40964;42.114;24.220;2023-11-21T13:28:15;4.97;;;2.90;;
55065;SDS011;40964;42.114;24.220;2023-11-21T13:30:43;7.95;;;3.05;;
55065;SDS011;40964;42.114;24.220;2023-11-21T13:33:09;6.20;;;2.70;;
55065;SDS011;40964;42.114;24.220;2023-11-21T13:35:38;4.68;;;2.60;;
55065;SDS011;40964;42.114;24.220;2023-11-21T13:38:17;6.72;;;3.17;;
55065;SDS011;40964;42.114;24.220;2023-11-21T13:40:47;5.32;;;2.63;;
55065;SDS011;40964;42.114;24.220;2023-11-21T13:43:19;4.65;;;2.55;;
55065;SDS011;40964;42.114;24.220;2023-11-21T13:45:47;5.93;;;2.85;;
55065;SDS011;40964;42.114;24.220;2023-11-21T13:48:27;5.28;;;3.28;;
55065;SDS011;40964;42.114;24.220;2023-11-21T13:51:15;5.22;;;2.63;;
55065;SDS011;40964;42.114;24.220;2023-11-21T13:53:45;4.50;;;2.22;;
55065;SDS011;40964;42.114;24.220;2023-11-21T13:56:17;7.53;;;2.50;;
55065;SDS011;40964;42.114;24.220;2023-11-21T13:58:50;4.45;;;2.67;;
55065;SDS011;40964;42.114;24.220;2023-11-21T14:01:19;5.85;;;2.60;;
55065;SDS011;40964;42.114;24.220;2023-11-21T14:03:58;4.20;;;2.55;;
55065;SDS011;40964;42.114;24.220;2023-11-21T14:06:48;4.45;;;2.65;;
55065;SDS011;40964;42.114;24.220;2023-11-21T14:09:17;2.83;;;2.17;;
55065;SDS011;40964;42.114;24.220;2023-11-21T14:11:57;6.20;;;2.50;;
55065;SDS011;40964;42.114;24.220;2023-11-21T14:14:23;2.97;;;2.33;;
55065;SDS011;40964;42.114;24.220;2023-11-21T14:16:51;3.03;;;2.17;;
55065;SDS011;40964;42.114;24.220;2023-11-21T14:19:17;6.72;;;2.65;;
55065;SDS011;40964;42.114;24.220;2023-11-21T14:21:43;5.43;;;2.25;;
55065;SDS011;40964;42.114;24.220;2023-11-21T14:24:13;4.75;;;2.00;;
55065;SDS011;40964;42.114;24.220;2023-11-21T14:26:42;5.57;;;3.13;;
55065;SDS011;40964;42.114;24.220;2023-11-21T14:29:11;6.82;;;3.25;;
55065;SDS011;40964;42.114;24.220;2023-11-21T14:31:39;6.25;;;3.35;;
55065;SDS011;40964;42.114;24.220;2023-11-21T14:34:06;8.38;;;4.10;;
55065;SDS011;40964;42.114;24.220;2023-11-21T14:36:33;9.43;;;3.65;;
55065;SDS011;40964;42.114;24.220;2023-11-21T14:38:59;9.52;;;5.30;;
55065;SDS011;40964;42.114;24.220;2023-11-21T14:41:24;22.08;;;10.90;;
55065;SDS011;40964;42.114;24.220;2023-11-21T14:43:54;21.35;;;9.93;;
55065;SDS011;40964;42.114;24.220;2023-11-21T14:46:22;31.88;;;14.40;;
55065;SDS011;40964;42.114;24.220;2023-11-21T14:48:47;38.75;;;16.48;;